Weather reports worldwide

Advertisment
Writtle, United Kingdom (99127): temperature & dewpoint: 06.12.2018 13:00:00 - 12.12.2018 13:00:00 (GMT)Writtle, United Kingdom (99127): temperature -20cm: 06.12.2018 13:00:00 - 12.12.2018 13:00:00 (GMT)Writtle, United Kingdom (99127): precipitation: 06.12.2018 13:00:00 - 12.12.2018 13:00:00 (GMT)
Date & Time tt [°C] td [°C] tt -20cm [°C] rr [mm]
12.12.2018 13:00:00 6,5 0,5 - 0,0
12.12.2018 12:00:00 6,5 -0,9 - 0,0
12.12.2018 11:00:00 6,3 0,5 - 0,0
12.12.2018 10:00:00 6,1 1,2 - 0,0
12.12.2018 09:00:00 4,8 1,0 8,4 0,0
12.12.2018 08:00:00 4,8 1,8 - 0,0
12.12.2018 07:00:00 5,6 3,0 - 0,0
12.12.2018 06:00:00 5,9 3,3 - 0,0
12.12.2018 05:00:00 6,0 3,6 - 0,0
12.12.2018 04:00:00 5,9 3,5 - 0,0
12.12.2018 03:00:00 6,1 3,2 - 0,0
12.12.2018 02:00:00 6,2 3,3 - 0,0
12.12.2018 01:00:00 6,0 3,7 - 0,0
12.12.2018 00:00:00 5,3 4,9 - 0,0
11.12.2018 23:00:00 4,2 4,1 - 0,0
11.12.2018 22:00:00 2,6 2,5 - 0,0
11.12.2018 21:00:00 2,4 2,3 - 0,0
11.12.2018 20:00:00 1,9 1,5 - 0,0
11.12.2018 19:00:00 3,0 2,2 - 0,0
11.12.2018 18:00:00 3,5 2,8 - 0,0
11.12.2018 17:00:00 3,8 3,1 - 0,0
11.12.2018 16:00:00 4,7 3,3 - 0,0
11.12.2018 15:00:00 6,8 4,8 - 0,0
11.12.2018 14:00:00 8,2 5,2 - 0,0
11.12.2018 13:00:00 7,3 5,1 - 0,0
11.12.2018 12:00:00 7,3 5,0 - 0,0
11.12.2018 11:00:00 6,4 4,7 - 0,0
11.12.2018 10:00:00 4,2 4,0 - 0,0
11.12.2018 09:00:00 1,8 1,7 8,7 0,2
11.12.2018 08:00:00 1,4 1,3 - 0,0
11.12.2018 07:00:00 1,2 1,2 - 0,0
11.12.2018 06:00:00 0,1 -0,1 - 0,0
11.12.2018 05:00:00 0,4 0,1 - 0,0
11.12.2018 04:00:00 0,8 0,4 - 0,0
11.12.2018 03:00:00 2,3 1,9 - 0,0
11.12.2018 02:00:00 3,5 2,8 - 0,0
11.12.2018 01:00:00 5,1 4,3 - 0,0
11.12.2018 00:00:00 5,6 4,7 - 0,0
10.12.2018 23:00:00 5,6 4,5 - 0,0
10.12.2018 22:00:00 5,8 3,6 - 0,0
10.12.2018 21:00:00 6,8 4,9 - 0,0
10.12.2018 20:00:00 6,7 5,1 - 0,0
10.12.2018 19:00:00 6,7 5,2 - 0,0
10.12.2018 18:00:00 7,0 5,3 - 0,0
10.12.2018 17:00:00 7,4 5,5 - 0,0
10.12.2018 16:00:00 8,0 5,2 - 0,0
10.12.2018 15:00:00 8,3 5,3 - 0,0
10.12.2018 14:00:00 8,5 5,3 - 0,0
10.12.2018 13:00:00 8,5 4,9 - 0,0
10.12.2018 12:00:00 8,8 5,1 - 0,0
10.12.2018 11:00:00 8,5 5,3 - 0,0
10.12.2018 10:00:00 7,3 5,5 - 0,0
10.12.2018 09:00:00 6,2 5,0 9,0 0,0
10.12.2018 08:00:00 5,4 4,3 - 0,0
10.12.2018 07:00:00 4,9 4,1 - 0,0
10.12.2018 06:00:00 4,6 3,7 - 0,0
10.12.2018 05:00:00 4,2 3,3 - 0,0
10.12.2018 04:00:00 5,0 3,7 - 0,0
10.12.2018 03:00:00 4,9 3,4 - 0,0
10.12.2018 02:00:00 5,3 3,7 - 0,0
10.12.2018 01:00:00 4,5 3,4 - 0,0
10.12.2018 00:00:00 4,7 3,4 - 0,0
09.12.2018 23:00:00 5,9 3,7 - 0,0
09.12.2018 22:00:00 6,6 3,5 - 0,0
09.12.2018 21:00:00 7,2 3,6 - 0,0
09.12.2018 20:00:00 8,2 4,3 - 0,0
09.12.2018 19:00:00 8,3 3,8 - 0,0
09.12.2018 18:00:00 7,3 3,4 - 0,0
09.12.2018 17:00:00 7,8 3,3 - 0,0
09.12.2018 16:00:00 8,8 4,7 - 0,0
09.12.2018 15:00:00 9,3 5,0 - 0,0
09.12.2018 14:00:00 9,8 4,5 - 0,0
09.12.2018 13:00:00 9,5 5,1 - 0,0
09.12.2018 12:00:00 9,4 6,6 - 0,4
09.12.2018 11:00:00 9,0 6,7 - 0,0
09.12.2018 10:00:00 9,3 6,7 - 0,0
09.12.2018 09:00:00 9,1 6,7 9,2 0,0
09.12.2018 08:00:00 8,3 6,7 - 0,4
09.12.2018 07:00:00 8,2 6,8 - 0,8
09.12.2018 06:00:00 9,3 5,5 - 0,0
09.12.2018 05:00:00 9,0 5,1 - 0,0
09.12.2018 04:00:00 9,0 4,5 - 0,0
09.12.2018 03:00:00 8,7 4,2 - 0,0
09.12.2018 02:00:00 9,0 4,5 - 0,0
09.12.2018 01:00:00 9,2 4,8 - 0,0
09.12.2018 00:00:00 9,0 5,3 - 0,0
08.12.2018 23:00:00 8,8 4,9 - 0,0
08.12.2018 22:00:00 8,6 4,6 - 0,0
08.12.2018 21:00:00 9,0 4,6 - 0,0
08.12.2018 20:00:00 10,2 5,5 - 0,0
08.12.2018 19:00:00 10,3 6,3 - 0,0
08.12.2018 18:00:00 10,4 6,0 - 0,0
08.12.2018 17:00:00 11,0 8,2 - 0,2
08.12.2018 16:00:00 10,8 9,2 - 0,2
08.12.2018 15:00:00 11,2 8,5 - 0,0
08.12.2018 14:00:00 10,7 7,2 - 0,0
08.12.2018 13:00:00 10,5 6,3 - 0,0
08.12.2018 12:00:00 11,3 5,1 - 0,0
08.12.2018 11:00:00 10,4 4,8 - 0,0
08.12.2018 10:00:00 9,7 4,6 - 0,0
08.12.2018 09:00:00 8,7 4,2 9,5 0,0
08.12.2018 08:00:00 8,2 3,8 - 0,0
08.12.2018 07:00:00 8,9 4,2 - 0,0
08.12.2018 06:00:00 8,9 4,5 - 0,0
08.12.2018 05:00:00 8,1 5,2 - 0,0
08.12.2018 04:00:00 7,7 4,9 - 0,0
08.12.2018 03:00:00 7,7 4,6 - 0,0
08.12.2018 02:00:00 7,3 4,3 - 0,0
08.12.2018 01:00:00 7,0 4,2 - 0,0
08.12.2018 00:00:00 6,5 3,7 - 0,0
07.12.2018 23:00:00 6,3 3,5 - 0,0
07.12.2018 22:00:00 6,0 3,5 - 0,0
07.12.2018 21:00:00 6,0 3,1 - 0,0
07.12.2018 20:00:00 6,3 3,1 - 0,0
07.12.2018 19:00:00 6,2 2,8 - 0,0
07.12.2018 18:00:00 5,8 3,1 - 0,0
07.12.2018 17:00:00 5,5 4,0 - 1,2
07.12.2018 16:00:00 7,3 3,1 - 0,0
07.12.2018 15:00:00 8,6 3,5 - 0,0
07.12.2018 14:00:00 9,6 4,6 - 0,0
07.12.2018 13:00:00 9,7 8,0 - 0,0
07.12.2018 12:00:00 10,0 8,8 - 1,2
07.12.2018 11:00:00 10,8 9,2 - 2,4
07.12.2018 10:00:00 11,9 10,8 - 1,0
07.12.2018 09:00:00 12,2 11,0 9,7 1,2
07.12.2018 08:00:00 12,5 11,2 - 0,6
07.12.2018 07:00:00 12,9 11,0 - 0,0
07.12.2018 06:00:00 13,1 11,2 - 0,0
07.12.2018 05:00:00 13,0 11,6 - 0,0
07.12.2018 04:00:00 12,8 11,8 - 0,2
07.12.2018 03:00:00 12,8 12,1 - 0,2
07.12.2018 02:00:00 12,8 12,2 - 0,0
07.12.2018 01:00:00 12,9 12,0 - 0,0
07.12.2018 00:00:00 13,1 11,5 - 0,0
06.12.2018 23:00:00 13,0 11,5 - 0,0
06.12.2018 22:00:00 12,8 11,5 - 0,0
06.12.2018 21:00:00 12,7 11,4 - 0,0
06.12.2018 20:00:00 12,4 11,3 - 0,2
06.12.2018 19:00:00 12,4 11,3 - 0,4
06.12.2018 18:00:00 12,3 11,0 - 0,2
06.12.2018 17:00:00 12,4 10,4 - 0,0
06.12.2018 16:00:00 12,4 9,7 - 0,0
06.12.2018 15:00:00 12,6 9,7 - 0,0
06.12.2018 14:00:00 12,7 10,3 - 0,0
06.12.2018 13:00:00 12,4 10,3 - 0,0

tt = temperature
td = dewpoint
tt -20cm = temperature -20cm
rr = precipitation

Next stations